createdAt,value
2023-01-28T00:01:25.023Z,98144.81
2023-01-28T00:06:28.331Z,98156.69
2023-01-28T00:11:31.471Z,98152.28
2023-01-28T00:16:36.268Z,98146.34
2023-01-28T00:21:39.666Z,98150.84
2023-01-28T00:26:42.971Z,98150.13
2023-01-28T00:31:47.700Z,98153.00
2023-01-28T00:36:57.796Z,98146.50
2023-01-28T00:42:01.358Z,98155.78
2023-01-28T00:47:06.161Z,98149.78
2023-01-28T00:52:09.312Z,98152.41
2023-01-28T00:57:13.765Z,98146.34
2023-01-28T01:02:18.600Z,98150.47
2023-01-28T01:07:32.217Z,98148.69
2023-01-28T01:12:35.527Z,98156.69
2023-01-28T01:17:41.379Z,98155.22
2023-01-28T01:22:44.767Z,98156.59
2023-01-28T01:27:50.760Z,98156.56
2023-01-28T01:32:55.938Z,98155.47
2023-01-28T01:37:59.151Z,98155.50
2023-01-28T01:43:02.333Z,98154.75
2023-01-28T01:48:15.300Z,98158.03
2023-01-28T01:53:22.131Z,98152.91
2023-01-28T01:58:30.291Z,98159.53
2023-01-28T02:03:42.352Z,98174.63
2023-01-28T02:08:46.592Z,98174.91
2023-01-28T02:13:55.140Z,98177.78
2023-01-28T02:19:00.895Z,98190.09
2023-01-28T02:24:23.621Z,98194.22
2023-01-28T02:29:35.948Z,98193.56
2023-01-28T02:34:42.744Z,98197.94
2023-01-28T02:39:50.014Z,98201.38
2023-01-28T02:44:55.580Z,98201.56
2023-01-28T02:50:02.130Z,98204.66
2023-01-28T02:55:11.490Z,98194.97
2023-01-28T03:00:22.160Z,98204.38
2023-01-28T03:05:30.079Z,98200.94
2023-01-28T03:10:33.438Z,98201.31
2023-01-28T03:16:02.403Z,98208.88
2023-01-28T03:21:26.722Z,98219.50
2023-01-28T03:26:54.520Z,98214.38
2023-01-28T03:32:19.041Z,98222.84
2023-01-28T03:37:23.504Z,98224.59
2023-01-28T03:42:39.405Z,98229.03
2023-01-28T03:48:08.335Z,98234.84
2023-01-28T03:53:16.901Z,98227.97
2023-01-28T03:58:53.811Z,98228.75
2023-01-28T04:03:58.743Z,98234.47
2023-01-28T04:09:06.051Z,98236.78
2023-01-28T04:14:23.886Z,98234.63
2023-01-28T04:19:37.428Z,98243.66
2023-01-28T04:24:42.349Z,98253.84
2023-01-28T04:29:45.966Z,98239.66
2023-01-28T04:35:08.844Z,98234.63
2023-01-28T04:40:34.881Z,98243.50
2023-01-28T04:45:43.608Z,98248.13
2023-01-28T04:50:58.994Z,98247.41
2023-01-28T04:56:15.451Z,98254.31
2023-01-28T05:01:19.490Z,98251.69
2023-01-28T05:06:24.432Z,98252.84
2023-01-28T05:11:31.078Z,98258.59
2023-01-28T05:16:37.544Z,98253.66
2023-01-28T05:21:42.598Z,98255.28
2023-01-28T05:26:54.777Z,98264.09
2023-01-28T05:31:58.066Z,98269.56
2023-01-28T05:37:02.840Z,98264.09
2023-01-28T05:42:13.204Z,98273.19
2023-01-28T05:47:21.605Z,98274.59
2023-01-28T05:52:30.098Z,98282.63
2023-01-28T05:57:34.582Z,98290.19
2023-01-28T06:02:38.684Z,98294.19
2023-01-28T06:07:46.522Z,98300.25
2023-01-28T06:12:50.150Z,98308.38
2023-01-28T06:18:13.506Z,98303.75
2023-01-28T06:23:18.928Z,98307.81
2023-01-28T06:28:22.311Z,98302.84
2023-01-28T06:33:26.600Z,98309.63
2023-01-28T06:38:31.899Z,98312.09
2023-01-28T06:43:35.705Z,98317.38
2023-01-28T06:48:40.132Z,98324.38
2023-01-28T06:53:46.129Z,98337.34
2023-01-28T06:58:49.674Z,98336.03
2023-01-28T07:03:53.799Z,98341.94
2023-01-28T07:08:58.534Z,98346.53
2023-01-28T07:14:02.867Z,98349.44
2023-01-28T07:19:07.599Z,98349.16
2023-01-28T07:24:13.498Z,98346.59
2023-01-28T07:29:16.755Z,98347.03
2023-01-28T07:34:23.427Z,98339.31
2023-01-28T07:39:28.187Z,98339.22
2023-01-28T07:44:31.586Z,98348.56
2023-01-28T07:49:36.264Z,98361.47
2023-01-28T07:54:41.034Z,98367.44
2023-01-28T07:59:44.349Z,98369.47
2023-01-28T08:04:48.156Z,98372.00
2023-01-28T08:09:53.776Z,98377.13
2023-01-28T08:14:57.280Z,98386.97
2023-01-28T08:20:00.880Z,98386.97
2023-01-28T08:25:05.906Z,98384.22
2023-01-28T08:30:10.388Z,98375.25
2023-01-28T08:35:13.693Z,98374.97
2023-01-28T08:40:18.761Z,98389.25
2023-01-28T08:45:27.525Z,98386.91
2023-01-28T08:50:33.643Z,98387.22
2023-01-28T08:55:39.259Z,98383.72
2023-01-28T09:00:44.381Z,98386.53
2023-01-28T09:05:49.637Z,98388.19
2023-01-28T09:11:00.598Z,98389.88
2023-01-28T09:16:06.753Z,98400.66
2023-01-28T09:21:10.061Z,98396.59
2023-01-28T09:26:17.056Z,98406.13
2023-01-28T09:31:20.465Z,98406.38
2023-01-28T09:36:24.336Z,98400.38
2023-01-28T09:41:34.133Z,98405.09
2023-01-28T09:46:39.411Z,98419.56
2023-01-28T09:51:46.343Z,98414.47
2023-01-28T09:56:54.996Z,98424.16
2023-01-28T10:02:04.520Z,98434.84
2023-01-28T10:07:22.990Z,98439.13
2023-01-28T10:12:46.603Z,98441.47
2023-01-28T10:17:53.601Z,98439.94
2023-01-28T10:23:08.038Z,98445.06
2023-01-28T10:28:20.428Z,98441.50
2023-01-28T10:33:30.450Z,98454.00
2023-01-28T10:38:33.989Z,98450.41
2023-01-28T10:43:40.566Z,98447.94
2023-01-28T10:48:49.126Z,98441.91
2023-01-28T10:53:52.960Z,98450.09
2023-01-28T10:59:02.421Z,98445.34
2023-01-28T11:04:05.852Z,98437.84
2023-01-28T11:09:22.967Z,98449.53
2023-01-28T11:14:29.823Z,98454.72
2023-01-28T11:19:38.112Z,98457.06
2023-01-28T11:24:43.791Z,98446.84
2023-01-28T11:29:48.529Z,98452.97
2023-01-28T11:34:53.808Z,98439.84
2023-01-28T11:40:04.933Z,98448.22
2023-01-28T11:45:17.944Z,98440.34
2023-01-28T11:50:33.252Z,98433.94
2023-01-28T11:55:46.790Z,98439.47
2023-01-28T12:01:02.099Z,98438.84
2023-01-28T12:06:23.261Z,98436.66
2023-01-28T12:11:54.307Z,98426.97
2023-01-28T12:17:12.505Z,98420.06
2023-01-28T12:22:58.391Z,98421.63
2023-01-28T12:28:10.274Z,98423.97
2023-01-28T12:33:45.260Z,98427.94
2023-01-28T12:38:58.645Z,98424.97
2023-01-28T12:44:06.825Z,98422.03
2023-01-28T12:49:18.133Z,98426.84
2023-01-28T12:54:26.134Z,98417.50
2023-01-28T12:59:33.859Z,98418.53
2023-01-28T13:04:45.118Z,98407.09
2023-01-28T13:09:52.839Z,98423.09
2023-01-28T13:14:56.266Z,98421.94
2023-01-28T13:20:01.732Z,98432.13
2023-01-28T13:25:21.278Z,98436.81
2023-01-28T13:30:27.957Z,98437.50
2023-01-28T13:35:35.568Z,98440.56
2023-01-28T13:40:41.828Z,98454.41
2023-01-28T13:45:45.115Z,98459.16
2023-01-28T13:50:54.466Z,98457.88
2023-01-28T13:56:00.429Z,98458.34
2023-01-28T14:01:28.640Z,98470.91
2023-01-28T14:07:09.483Z,98463.56
2023-01-28T14:12:47.122Z,98459.69
2023-01-28T14:17:52.323Z,98468.69
2023-01-28T14:23:02.328Z,98458.47
2023-01-28T14:28:08.133Z,98458.66
2023-01-28T14:33:13.397Z,98443.53
2023-01-28T14:38:21.631Z,98455.44
2023-01-28T14:43:27.683Z,98447.81
2023-01-28T14:48:38.352Z,98450.84
2023-01-28T14:54:02.831Z,98443.53
2023-01-28T14:59:16.597Z,98429.38
2023-01-28T15:04:25.257Z,98432.28
2023-01-28T15:09:29.931Z,98428.38
2023-01-28T15:14:33.732Z,98418.84
2023-01-28T15:19:38.589Z,98429.16
2023-01-28T15:24:44.473Z,98406.97
2023-01-28T15:29:53.828Z,98414.72
2023-01-28T15:34:57.614Z,98421.50
2023-01-28T15:40:07.323Z,98414.16
2023-01-28T15:45:18.106Z,98398.03
2023-01-28T15:50:23.876Z,98414.41
2023-01-28T15:55:40.435Z,98431.13
2023-01-28T16:00:43.561Z,98427.69
2023-01-28T16:05:57.420Z,98429.38
2023-01-28T16:11:02.063Z,98425.41
2023-01-28T16:16:06.415Z,98433.75
2023-01-28T16:21:13.117Z,98448.22
2023-01-28T16:26:25.416Z,98436.91
2023-01-28T16:31:29.847Z,98437.00
2023-01-28T16:36:32.991Z,98458.22
2023-01-28T16:41:42.139Z,98438.03
2023-01-28T16:46:45.912Z,98447.81
2023-01-28T16:51:49.196Z,98451.16
2023-01-28T16:56:55.565Z,98466.41
2023-01-28T17:01:59.771Z,98467.81
2023-01-28T17:07:02.957Z,98474.00
2023-01-28T17:12:08.119Z,98489.06
2023-01-28T17:17:11.485Z,98493.59
2023-01-28T17:22:14.591Z,98485.50
2023-01-28T17:27:19.275Z,98482.00
2023-01-28T17:32:22.675Z,98494.09
2023-01-28T17:37:25.969Z,98492.59
2023-01-28T17:42:31.116Z,98484.78
2023-01-28T17:47:34.316Z,98462.22
2023-01-28T17:52:37.600Z,98478.84
2023-01-28T17:57:46.434Z,98484.56
2023-01-28T18:02:52.562Z,98492.56
2023-01-28T18:07:55.719Z,98489.94
2023-01-28T18:13:00.241Z,98498.53
2023-01-28T18:18:03.457Z,98523.94
2023-01-28T18:23:06.759Z,98530.69
2023-01-28T18:28:11.292Z,98550.38
2023-01-28T18:33:14.566Z,98556.41
2023-01-28T18:38:18.637Z,98551.56
2023-01-28T18:43:23.502Z,98563.09
2023-01-28T18:48:26.785Z,98573.78
2023-01-28T18:53:32.295Z,98582.13
2023-01-28T18:58:37.026Z,98568.28
2023-01-28T19:03:40.168Z,98575.19
2023-01-28T19:08:43.518Z,98578.31
2023-01-28T19:13:48.295Z,98593.00
2023-01-28T19:18:55.412Z,98576.41
2023-01-28T19:24:00.509Z,98580.06
2023-01-28T19:29:07.992Z,98579.34
2023-01-28T19:34:13.527Z,98571.66
2023-01-28T19:39:17.868Z,98566.34
2023-01-28T19:44:22.486Z,98548.72
2023-01-28T19:49:25.791Z,98561.44
2023-01-28T19:54:29.095Z,98549.16
2023-01-28T19:59:33.605Z,98561.09
2023-01-28T20:04:38.300Z,98548.78
2023-01-28T20:09:44.218Z,98557.91
2023-01-28T20:14:49.249Z,98558.81
2023-01-28T20:19:52.852Z,98570.03
2023-01-28T20:24:57.343Z,98565.94
2023-01-28T20:30:02.137Z,98557.03
2023-01-28T20:35:05.856Z,98553.72
2023-01-28T20:40:10.592Z,98545.47
2023-01-28T20:45:15.814Z,98558.38
2023-01-28T20:50:19.573Z,98563.03
2023-01-28T20:55:22.836Z,98571.19
2023-01-28T21:00:27.777Z,98586.81
2023-01-28T21:05:31.072Z,98577.63
2023-01-28T21:10:34.431Z,98580.63
2023-01-28T21:15:39.151Z,98568.53
2023-01-28T21:20:42.396Z,98582.13
2023-01-28T21:25:47.242Z,98581.56
2023-01-28T21:30:51.981Z,98575.69
2023-01-28T21:35:55.311Z,98567.53
2023-01-28T21:41:03.692Z,98573.66
2023-01-28T21:46:09.045Z,98560.75
2023-01-28T21:51:42.213Z,98571.22
2023-01-28T21:56:46.218Z,98571.81
2023-01-28T22:01:51.007Z,98568.41
2023-01-28T22:06:55.628Z,98571.06
2023-01-28T22:11:59.030Z,98570.53
2023-01-28T22:17:04.001Z,98565.34
2023-01-28T22:22:07.635Z,98557.41
2023-01-28T22:27:10.794Z,98543.34
2023-01-28T22:32:15.424Z,98548.13
2023-01-28T22:37:18.681Z,98542.50
2023-01-28T22:42:21.988Z,98540.44
2023-01-28T22:47:26.461Z,98532.41
2023-01-28T22:52:29.707Z,98537.56
2023-01-28T22:57:33.116Z,98555.00
2023-01-28T23:02:38.247Z,98539.97
2023-01-28T23:07:41.587Z,98537.06
2023-01-28T23:12:46.059Z,98564.81
2023-01-28T23:18:08.261Z,98567.25
2023-01-28T23:23:33.700Z,98561.91
2023-01-28T23:28:36.833Z,98575.00
2023-01-28T23:33:41.479Z,98567.06
2023-01-28T23:38:44.814Z,98561.91
2023-01-28T23:43:48.150Z,98559.72
2023-01-28T23:48:52.871Z,98558.19
2023-01-28T23:53:56.158Z,98550.41
2023-01-28T23:58:59.266Z,98548.78
